CCA8185 ZBAA-ZSNJ
Flight info
| Callsign | CCA8185 |
|---|---|
| Flight time | N/A |
| Altitude | 37100 |
| Route | ELKUR5Y ELKUR W40 YQG/K0833S1100 W142 DALIM/K0824S1130 A593 DPX A470 OF OF71F |
| Aircraft | A320/M-SDE3FGHIRWY/LB1 |
Departure
| Time | 2026-05-07 09:29 |
|---|---|
| Airport | Beijing Capital International Airport (ZBAA) |
Arrival
| Time | N/A |
|---|---|
| Airport | Nanjing Lukou International Airport (ZSNJ) |
| Time | Latitude | Longitude | Altitude | Speed | Heading |
|---|---|---|---|---|---|
| 2026-05-07 09:20 | 40.07158 | 116.60377 | 122 ft | 0 kts | 352° |
| 2026-05-07 09:21 | 40.07159 | 116.60377 | 122 ft | 0 kts | 352° |
| 2026-05-07 09:21 | 40.07174 | 116.60375 | 122 ft | 3 kts | 353° |
| 2026-05-07 09:21 | 40.07213 | 116.60368 | 122 ft | 8 kts | 352° |
| 2026-05-07 09:22 | 40.07247 | 116.60297 | 122 ft | 11 kts | 266° |
| 2026-05-07 09:22 | 40.07236 | 116.60181 | 122 ft | 10 kts | 263° |
| 2026-05-07 09:22 | 40.07199 | 116.60107 | 122 ft | 11 kts | 188° |
| 2026-05-07 09:22 | 40.07127 | 116.60115 | 122 ft | 9 kts | 173° |
| 2026-05-07 09:23 | 40.07055 | 116.60126 | 122 ft | 11 kts | 174° |
| 2026-05-07 09:23 | 40.06962 | 116.60141 | 122 ft | 14 kts | 173° |
| 2026-05-07 09:23 | 40.06851 | 116.60158 | 122 ft | 17 kts | 174° |
| 2026-05-07 09:23 | 40.06725 | 116.60178 | 122 ft | 19 kts | 173° |
| 2026-05-07 09:24 | 40.06585 | 116.60200 | 122 ft | 21 kts | 174° |
| 2026-05-07 09:24 | 40.06457 | 116.60220 | 122 ft | 17 kts | 174° |
| 2026-05-07 09:24 | 40.06342 | 116.60239 | 122 ft | 13 kts | 173° |
| 2026-05-07 09:24 | 40.06260 | 116.60210 | 122 ft | 9 kts | 251° |
| 2026-05-07 09:25 | 40.06230 | 116.60147 | 122 ft | 9 kts | 200° |
| 2026-05-07 09:25 | 40.06160 | 116.60151 | 122 ft | 11 kts | 173° |
| 2026-05-07 09:25 | 40.06076 | 116.60164 | 122 ft | 12 kts | 174° |
| 2026-05-07 09:25 | 40.05984 | 116.60178 | 122 ft | 14 kts | 173° |
| 2026-05-07 09:26 | 40.05882 | 116.60194 | 122 ft | 15 kts | 173° |
| 2026-05-07 09:26 | 40.05773 | 116.60211 | 122 ft | 16 kts | 174° |
| 2026-05-07 09:26 | 40.05671 | 116.60227 | 122 ft | 10 kts | 175° |
| 2026-05-07 09:26 | 40.05629 | 116.60184 | 122 ft | 0 kts | 257° |
| 2026-05-07 09:27 | 40.05622 | 116.60132 | 122 ft | 7 kts | 264° |
| 2026-05-07 09:28 | 40.05616 | 116.60048 | 122 ft | 6 kts | 267° |
| 2026-05-07 09:28 | 40.05640 | 116.60000 | 122 ft | 7 kts | 339° |
| 2026-05-07 09:28 | 40.05702 | 116.59988 | 122 ft | 21 kts | 353° |
| 2026-05-07 09:28 | 40.06121 | 116.59920 | 122 ft | 96 kts | 353° |
| 2026-05-07 09:29 | 40.06990 | 116.59785 | 123 ft | 155 kts | 351° |
| 2026-05-07 09:29 | 40.08170 | 116.59595 | 467 ft | 176 kts | 351° |
| 2026-05-07 09:29 | 40.09370 | 116.59424 | 1202 ft | 176 kts | 352° |
| 2026-05-07 09:29 | 40.10521 | 116.59242 | 2125 ft | 165 kts | 353° |
| 2026-05-07 09:30 | 40.11699 | 116.59055 | 2629 ft | 178 kts | 353° |
| 2026-05-07 09:30 | 40.12999 | 116.58851 | 3007 ft | 201 kts | 353° |
| 2026-05-07 09:30 | 40.14442 | 116.58625 | 3518 ft | 219 kts | 353° |
| 2026-05-07 09:30 | 40.16027 | 116.58376 | 4046 ft | 237 kts | 353° |
| 2026-05-07 09:31 | 40.17692 | 116.58115 | 4684 ft | 249 kts | 353° |
| 2026-05-07 09:31 | 40.19412 | 116.57845 | 5545 ft | 252 kts | 353° |
| 2026-05-07 09:31 | 40.21174 | 116.57572 | 6273 ft | 254 kts | 354° |
| 2026-05-07 09:31 | 40.22906 | 116.57785 | 6724 ft | 258 kts | 18° |
| 2026-05-07 09:32 | 40.24444 | 116.59077 | 6915 ft | 267 kts | 43° |
| 2026-05-07 09:32 | 40.25393 | 116.61170 | 6911 ft | 276 kts | 70° |
| 2026-05-07 09:32 | 40.25693 | 116.63689 | 6925 ft | 281 kts | 79° |
| 2026-05-07 09:32 | 40.25888 | 116.66193 | 6925 ft | 280 kts | 79° |
| 2026-05-07 09:33 | 40.26091 | 116.68727 | 6919 ft | 280 kts | 79° |
| 2026-05-07 09:33 | 40.26308 | 116.71284 | 6925 ft | 280 kts | 79° |
| 2026-05-07 09:33 | 40.26526 | 116.73804 | 6914 ft | 280 kts | 79° |
| 2026-05-07 09:33 | 40.26746 | 116.76321 | 6913 ft | 280 kts | 79° |
| 2026-05-07 09:34 | 40.26968 | 116.78867 | 6972 ft | 283 kts | 79° |
| 2026-05-07 09:34 | 40.27198 | 116.81461 | 7579 ft | 290 kts | 79° |
| 2026-05-07 09:34 | 40.27420 | 116.84022 | 8553 ft | 288 kts | 79° |
| 2026-05-07 09:34 | 40.27644 | 116.86608 | 9400 ft | 291 kts | 79° |
| 2026-05-07 09:35 | 40.27874 | 116.89272 | 10195 ft | 296 kts | 79° |
| 2026-05-07 09:35 | 40.28107 | 116.91953 | 10784 ft | 307 kts | 78° |
| 2026-05-07 09:35 | 40.28356 | 116.94801 | 11175 ft | 325 kts | 78° |
| 2026-05-07 09:35 | 40.28527 | 116.97855 | 11636 ft | 344 kts | 89° |
| 2026-05-07 09:36 | 40.27873 | 117.00887 | 12303 ft | 360 kts | 115° |
| 2026-05-07 09:36 | 40.26267 | 117.03421 | 13049 ft | 370 kts | 141° |
| 2026-05-07 09:36 | 40.23975 | 117.04904 | 13729 ft | 374 kts | 168° |
| 2026-05-07 09:36 | 40.21392 | 117.05407 | 14432 ft | 377 kts | 175° |
| 2026-05-07 09:37 | 40.18787 | 117.05776 | 15125 ft | 381 kts | 176° |
| 2026-05-07 09:37 | 40.16107 | 117.06167 | 15787 ft | 386 kts | 175° |
| 2026-05-07 09:37 | 40.13438 | 117.06576 | 16409 ft | 392 kts | 175° |
| 2026-05-07 09:37 | 40.10717 | 117.07014 | 17037 ft | 397 kts | 175° |
| 2026-05-07 09:38 | 40.07982 | 117.07463 | 17657 ft | 402 kts | 175° |
| 2026-05-07 09:38 | 40.05186 | 117.07929 | 18276 ft | 406 kts | 175° |
| 2026-05-07 09:38 | 40.02373 | 117.08400 | 18858 ft | 411 kts | 175° |
| 2026-05-07 09:38 | 39.99524 | 117.08878 | 19455 ft | 415 kts | 175° |
| 2026-05-07 09:39 | 39.96647 | 117.09362 | 20042 ft | 419 kts | 175° |
| 2026-05-07 09:39 | 39.93754 | 117.09847 | 20622 ft | 423 kts | 175° |
| 2026-05-07 09:39 | 39.90838 | 117.10335 | 21223 ft | 426 kts | 175° |
| 2026-05-07 09:39 | 39.87873 | 117.10834 | 21811 ft | 429 kts | 175° |
| 2026-05-07 09:40 | 39.84878 | 117.11333 | 22405 ft | 432 kts | 175° |
| 2026-05-07 09:40 | 39.81880 | 117.11832 | 22987 ft | 435 kts | 175° |
| 2026-05-07 09:40 | 39.78875 | 117.12333 | 23523 ft | 438 kts | 175° |
| 2026-05-07 09:40 | 39.75868 | 117.12834 | 24059 ft | 441 kts | 176° |
| 2026-05-07 09:41 | 39.72818 | 117.13345 | 24559 ft | 443 kts | 176° |
| 2026-05-07 09:41 | 39.69748 | 117.13859 | 25048 ft | 446 kts | 176° |
| 2026-05-07 09:41 | 39.66663 | 117.14373 | 25522 ft | 448 kts | 176° |
| 2026-05-07 09:41 | 39.63552 | 117.14889 | 25948 ft | 451 kts | 177° |
| 2026-05-07 09:42 | 39.60451 | 117.15382 | 26419 ft | 451 kts | 176° |
| 2026-05-07 09:42 | 39.57358 | 117.15895 | 26826 ft | 454 kts | 177° |
| 2026-05-07 09:42 | 39.54184 | 117.16439 | 27209 ft | 457 kts | 178° |
| 2026-05-07 09:42 | 39.51041 | 117.16962 | 27560 ft | 458 kts | 180° |
| 2026-05-07 09:43 | 39.47895 | 117.16961 | 27938 ft | 447 kts | 194° |
| 2026-05-07 09:43 | 39.44906 | 117.16109 | 28328 ft | 436 kts | 207° |
| 2026-05-07 09:43 | 39.42171 | 117.14602 | 28689 ft | 429 kts | 213° |
| 2026-05-07 09:43 | 39.39466 | 117.12901 | 29034 ft | 430 kts | 214° |
| 2026-05-07 09:44 | 39.36771 | 117.11186 | 29322 ft | 432 kts | 214° |
| 2026-05-07 09:44 | 39.34070 | 117.09478 | 29670 ft | 433 kts | 214° |
| 2026-05-07 09:44 | 39.31370 | 117.07789 | 30103 ft | 431 kts | 214° |
| 2026-05-07 09:44 | 39.28679 | 117.06117 | 30533 ft | 427 kts | 215° |
| 2026-05-07 09:45 | 39.26015 | 117.04469 | 30964 ft | 423 kts | 215° |
| 2026-05-07 09:45 | 39.23370 | 117.02835 | 31332 ft | 422 kts | 215° |
| 2026-05-07 09:45 | 39.20725 | 117.01198 | 31647 ft | 421 kts | 216° |
| 2026-05-07 09:45 | 39.18097 | 116.99575 | 31968 ft | 421 kts | 216° |
| 2026-05-07 09:46 | 39.15485 | 116.97967 | 32240 ft | 421 kts | 216° |
| 2026-05-07 09:46 | 39.12859 | 116.96350 | 32560 ft | 419 kts | 216° |
| 2026-05-07 09:46 | 39.10223 | 116.94730 | 32902 ft | 417 kts | 216° |
| 2026-05-07 09:46 | 39.07597 | 116.93120 | 33171 ft | 417 kts | 217° |
| 2026-05-07 09:47 | 39.04994 | 116.91521 | 33437 ft | 416 kts | 217° |
| 2026-05-07 09:47 | 39.02409 | 116.89934 | 33720 ft | 416 kts | 217° |
| 2026-05-07 09:47 | 38.99793 | 116.88329 | 34010 ft | 415 kts | 217° |
| 2026-05-07 09:47 | 38.97211 | 116.86748 | 34302 ft | 413 kts | 217° |
| 2026-05-07 09:48 | 38.94602 | 116.85154 | 34613 ft | 411 kts | 217° |
| 2026-05-07 09:48 | 38.92028 | 116.83581 | 34908 ft | 410 kts | 217° |
| 2026-05-07 09:48 | 38.89455 | 116.82008 | 35165 ft | 409 kts | 217° |
| 2026-05-07 09:48 | 38.86911 | 116.80456 | 35405 ft | 408 kts | 217° |
| 2026-05-07 09:49 | 38.84315 | 116.78870 | 35639 ft | 408 kts | 217° |
| 2026-05-07 09:49 | 38.81755 | 116.77309 | 35877 ft | 408 kts | 217° |
| 2026-05-07 09:49 | 38.79203 | 116.75755 | 36090 ft | 409 kts | 217° |
| 2026-05-07 09:49 | 38.76638 | 116.74195 | 36279 ft | 410 kts | 217° |
| 2026-05-07 09:50 | 38.74072 | 116.72636 | 36456 ft | 410 kts | 217° |
| 2026-05-07 09:50 | 38.71489 | 116.71075 | 36594 ft | 413 kts | 216° |
| 2026-05-07 09:50 | 38.68793 | 116.69620 | 36752 ft | 419 kts | 213° |
| 2026-05-07 09:50 | 38.66033 | 116.68362 | 36933 ft | 424 kts | 210° |
| 2026-05-07 09:51 | 38.63186 | 116.67299 | 37112 ft | 429 kts | 206° |
| 2026-05-07 09:51 | 38.57289 | 116.65798 | 37139 ft | 440 kts | 199° |
| 2026-05-07 09:52 | 38.51129 | 116.65022 | 37154 ft | 445 kts | 197° |
| 2026-05-07 09:52 | 38.44965 | 116.64322 | 37145 ft | 444 kts | 197° |
| 2026-05-07 09:53 | 38.38834 | 116.63621 | 37163 ft | 443 kts | 197° |
| 2026-05-07 09:53 | 38.32597 | 116.63307 | 37151 ft | 453 kts | 191° |
| 2026-05-07 09:54 | 38.26260 | 116.64022 | 37146 ft | 467 kts | 182° |
| 2026-05-07 09:54 | 38.19826 | 116.65879 | 37143 ft | 478 kts | 174° |
| 2026-05-07 09:55 | 38.13499 | 116.68286 | 37146 ft | 477 kts | 175° |
| 2026-05-07 09:55 | 38.07120 | 116.70701 | 37153 ft | 475 kts | 174° |
| 2026-05-07 09:56 | 38.00792 | 116.73113 | 37160 ft | 476 kts | 175° |
| 2026-05-07 09:56 | 37.94487 | 116.75514 | 37173 ft | 477 kts | 175° |
| 2026-05-07 09:57 | 37.88087 | 116.77943 | 37185 ft | 477 kts | 175° |
| 2026-05-07 09:57 | 37.81712 | 116.80363 | 37181 ft | 475 kts | 175° |
| 2026-05-07 09:58 | 37.75408 | 116.82754 | 37182 ft | 473 kts | 175° |
| 2026-05-07 09:58 | 37.69096 | 116.85135 | 37190 ft | 474 kts | 175° |
| 2026-05-07 09:59 | 37.62765 | 116.87517 | 37174 ft | 476 kts | 176° |
| 2026-05-07 09:59 | 37.56432 | 116.89902 | 37183 ft | 476 kts | 175° |
| 2026-05-07 10:00 | 37.50101 | 116.92282 | 37234 ft | 477 kts | 176° |
| 2026-05-07 10:00 | 37.43758 | 116.94663 | 37184 ft | 476 kts | 176° |
| 2026-05-07 10:01 | 37.37443 | 116.97033 | 37199 ft | 474 kts | 176° |
| 2026-05-07 10:01 | 37.31109 | 116.99397 | 37186 ft | 474 kts | 175° |
| 2026-05-07 10:02 | 37.24813 | 117.02170 | 37194 ft | 486 kts | 172° |
| 2026-05-07 10:02 | 37.18515 | 117.05158 | 37185 ft | 481 kts | 172° |
| 2026-05-07 10:03 | 37.12226 | 117.08087 | 37197 ft | 486 kts | 172° |
| 2026-05-07 10:03 | 37.05904 | 117.11040 | 37203 ft | 485 kts | 172° |
| 2026-05-07 10:03 | 37.02743 | 117.12518 | 37374 ft | 484 kts | 172° |
| 2026-05-07 10:04 | 36.99606 | 117.13984 | 37253 ft | 480 kts | 172° |
| 2026-05-07 10:04 | 36.93358 | 117.16885 | 37191 ft | 480 kts | 172° |
| 2026-05-07 10:05 | 36.87056 | 117.19514 | 37268 ft | 469 kts | 179° |
| 2026-05-07 10:05 | 36.80762 | 117.21078 | 37199 ft | 455 kts | 187° |
| 2026-05-07 10:06 | 36.74579 | 117.21579 | 37188 ft | 437 kts | 195° |
| 2026-05-07 10:06 | 36.68486 | 117.21506 | 37188 ft | 438 kts | 195° |
| 2026-05-07 10:07 | 36.62444 | 117.21447 | 37195 ft | 438 kts | 195° |
| 2026-05-07 10:07 | 36.56364 | 117.21405 | 37199 ft | 435 kts | 195° |
| 2026-05-07 10:08 | 36.50275 | 117.21355 | 37204 ft | 440 kts | 194° |
| 2026-05-07 10:08 | 36.44106 | 117.21642 | 37206 ft | 449 kts | 188° |
| 2026-05-07 10:09 | 36.37864 | 117.22858 | 37200 ft | 463 kts | 180° |
| 2026-05-07 10:09 | 36.31558 | 117.25028 | 37200 ft | 472 kts | 175° |
| 2026-05-07 10:10 | 36.25322 | 117.27392 | 37194 ft | 472 kts | 175° |
| 2026-05-07 10:10 | 36.19002 | 117.29748 | 37193 ft | 473 kts | 175° |
| 2026-05-07 10:11 | 36.12757 | 117.32075 | 37194 ft | 468 kts | 175° |
| 2026-05-07 10:11 | 36.06519 | 117.34379 | 37197 ft | 470 kts | 175° |
| 2026-05-07 10:12 | 36.00273 | 117.36681 | 37191 ft | 470 kts | 175° |
| 2026-05-07 10:12 | 35.94020 | 117.39011 | 37188 ft | 471 kts | 175° |
| 2026-05-07 10:13 | 35.87771 | 117.41357 | 37188 ft | 467 kts | 175° |
| 2026-05-07 10:13 | 35.81533 | 117.43685 | 37187 ft | 468 kts | 175° |
| 2026-05-07 10:14 | 35.75323 | 117.45999 | 37188 ft | 468 kts | 175° |
| 2026-05-07 10:14 | 35.69103 | 117.48318 | 37185 ft | 467 kts | 174° |
| 2026-05-07 10:15 | 35.62865 | 117.50639 | 37187 ft | 467 kts | 174° |
| 2026-05-07 10:15 | 35.56686 | 117.52937 | 37180 ft | 463 kts | 174° |
| 2026-05-07 10:16 | 35.50525 | 117.55218 | 37186 ft | 465 kts | 174° |
| 2026-05-07 10:16 | 35.44313 | 117.57516 | 37185 ft | 465 kts | 174° |
| 2026-05-07 10:17 | 35.38148 | 117.59795 | 37181 ft | 462 kts | 174° |
| 2026-05-07 10:17 | 35.32018 | 117.62059 | 37183 ft | 461 kts | 174° |
| 2026-05-07 10:18 | 35.25921 | 117.64304 | 37179 ft | 460 kts | 174° |
| 2026-05-07 10:18 | 35.19774 | 117.66569 | 37176 ft | 457 kts | 174° |
| 2026-05-07 10:19 | 35.13698 | 117.68799 | 37176 ft | 457 kts | 174° |
| 2026-05-07 10:19 | 35.07624 | 117.71027 | 37174 ft | 457 kts | 174° |
| 2026-05-07 10:20 | 35.01559 | 117.73248 | 37173 ft | 455 kts | 174° |
| 2026-05-07 10:20 | 34.95478 | 117.75472 | 37169 ft | 456 kts | 174° |
| 2026-05-07 10:21 | 34.89438 | 117.77685 | 37163 ft | 455 kts | 174° |
| 2026-05-07 10:21 | 34.83356 | 117.79906 | 37159 ft | 457 kts | 173° |
| 2026-05-07 10:22 | 34.77254 | 117.82122 | 37169 ft | 458 kts | 174° |
| 2026-05-07 10:22 | 34.71115 | 117.84325 | 37174 ft | 458 kts | 174° |
| 2026-05-07 10:23 | 34.65034 | 117.86508 | 37175 ft | 458 kts | 174° |
| 2026-05-07 10:23 | 34.58924 | 117.88700 | 37171 ft | 457 kts | 174° |
| 2026-05-07 10:24 | 34.52785 | 117.90900 | 37168 ft | 459 kts | 173° |
| 2026-05-07 10:24 | 34.46698 | 117.93081 | 37169 ft | 458 kts | 173° |
| 2026-05-07 10:25 | 34.40594 | 117.95262 | 37168 ft | 458 kts | 173° |
| 2026-05-07 10:25 | 34.34479 | 117.97450 | 37169 ft | 457 kts | 173° |
| 2026-05-07 10:26 | 34.28394 | 117.99618 | 37172 ft | 458 kts | 173° |
| 2026-05-07 10:26 | 34.22313 | 118.01815 | 37166 ft | 457 kts | 173° |
| 2026-05-07 10:27 | 34.16193 | 118.04049 | 37167 ft | 458 kts | 173° |
| 2026-05-07 10:27 | 34.10130 | 118.06258 | 37167 ft | 459 kts | 172° |
| 2026-05-07 10:28 | 34.03939 | 118.08511 | 37162 ft | 458 kts | 173° |
| 2026-05-07 10:28 | 33.97828 | 118.10725 | 37169 ft | 459 kts | 172° |
| 2026-05-07 10:29 | 33.91729 | 118.12946 | 37154 ft | 458 kts | 172° |
| 2026-05-07 10:29 | 33.85581 | 118.15186 | 37162 ft | 458 kts | 172° |
| 2026-05-07 10:30 | 33.76450 | 118.18501 | 37162 ft | 459 kts | 172° |
| 2026-05-07 10:30 | 33.70310 | 118.20731 | 37152 ft | 459 kts | 172° |
| 2026-05-07 10:31 | 33.64214 | 118.22950 | 37146 ft | 459 kts | 172° |
| 2026-05-07 10:31 | 33.58067 | 118.25179 | 36910 ft | 461 kts | 172° |
| 2026-05-07 10:32 | 33.54995 | 118.26296 | 36624 ft | 458 kts | 172° |
| 2026-05-07 10:32 | 33.51996 | 118.27387 | 36346 ft | 455 kts | 172° |
| 2026-05-07 10:32 | 33.48967 | 118.28485 | 36076 ft | 451 kts | 172° |
| 2026-05-07 10:32 | 33.45972 | 118.29572 | 35802 ft | 448 kts | 172° |
| 2026-05-07 10:33 | 33.42994 | 118.30648 | 35521 ft | 448 kts | 172° |
| 2026-05-07 10:33 | 33.39982 | 118.31734 | 35232 ft | 449 kts | 172° |
| 2026-05-07 10:33 | 33.36996 | 118.32811 | 34876 ft | 449 kts | 172° |
| 2026-05-07 10:33 | 33.34025 | 118.33883 | 34447 ft | 449 kts | 172° |
| 2026-05-07 10:34 | 33.31062 | 118.34955 | 33982 ft | 449 kts | 172° |
| 2026-05-07 10:34 | 33.28028 | 118.36049 | 33429 ft | 449 kts | 171° |
| 2026-05-07 10:34 | 33.25041 | 118.37123 | 32794 ft | 450 kts | 171° |
| 2026-05-07 10:34 | 33.22757 | 118.37944 | 32320 ft | 450 kts | 171° |
| 2026-05-07 10:35 | 33.21694 | 118.38326 | 32112 ft | 450 kts | 171° |